Saturday, April 19, 2014, 6:06 PM EDT
Back to Local

KCXY, Harrisburg Capital City

Location: New Cumberland, PA, United States Lat: 40.217
Local Time: 6:06 PM EDT (22:06 GMT) Lon: -76.85
Time Zone: US/Eastern Elev: 347 ft

Show me the last for .
Show Decoded

2014-04-19 16:56 METAR KCXY 192056Z 31008G16KT 10SM CLR 17/M03 A3026 RMK AO2 SLP250 T01721033
                 56009 =
2014-04-19 15:56 METAR KCXY 191956Z 32011KT 10SM CLR 17/M04 A3027 RMK AO2 SLP252 T01721039 =
2014-04-19 14:56 METAR KCXY 191856Z 32011KT 10SM CLR 17/M05 A3028 RMK AO2 SLP255 T01671050 =
2014-04-19 13:56 METAR KCXY 191756Z 34015G19KT 10SM CLR 17/M07 A3029 RMK AO2 SLP258 T01671067
                 10172 20072 56014 =
2014-04-19 12:56 METAR KCXY 191656Z 34011G19KT 10SM CLR 17/M08 A3029 RMK AO2 SLP258 T01671078 =
2014-04-19 11:56 METAR KCXY 191556Z 34009KT 310V010 10SM CLR 16/M02 A3031 RMK AO2 SLP266
                 T01611022 =
2014-04-19 10:56 METAR KCXY 191456Z 33008KT 10SM CLR 14/M02 A3033 RMK AO2 SLP272 T01441017 51008
                 =
2014-04-19 09:56 METAR KCXY 191356Z 33007KT 10SM CLR 13/01 A3032 RMK AO2 SLP271 T01280011 =
2014-04-19 08:56 METAR KCXY 191256Z 32004KT 10SM CLR 11/03 A3031 RMK AO2 SLP267 T01060033 =
2014-04-19 07:56 METAR KCXY 191156Z 00000KT 10SM CLR 07/03 A3031 RMK AO2 SLP265 T00670028 10067
                 20028 53015 =
2014-04-19 06:56 METAR KCXY 191056Z 00000KT 10SM CLR 04/02 A3029 RMK AO2 SLP258 T00390017 =
2014-04-19 05:56 METAR KCXY 190956Z AUTO 25003KT 10SM CLR 03/01 A3026 RMK AO2 SLP252 T00280006 =
2014-04-19 04:56 METAR KCXY 190856Z AUTO 22003KT 10SM CLR 04/01 A3026 RMK AO2 SLP249 T00390011
                 55001 =
2014-04-19 03:56 METAR KCXY 190756Z AUTO 00000KT 10SM CLR 04/01 A3025 RMK AO2 SLP246 T00440011 =
2014-04-19 02:56 METAR KCXY 190656Z AUTO 00000KT 10SM CLR 06/01 A3025 RMK AO2 SLP247 T00560011 =
2014-04-19 01:56 METAR KCXY 190556Z AUTO 00000KT 10SM CLR 06/02 A3026 RMK AO2 SLP251 T00610017
                 10106 20061 55003 =
2014-04-19 00:56 METAR KCXY 190456Z AUTO 00000KT 10SM CLR 07/01 A3026 RMK AO2 SLP248 T00720011
                 401221006 =
2014-04-18 23:56 METAR KCXY 190356Z AUTO 28003KT 10SM CLR 09/01 A3026 RMK AO2 SLP250 T00890011 =
2014-04-18 22:56 METAR KCXY 190256Z AUTO 23003KT 10SM CLR 09/01 A3027 RMK AO2 SLP254 T00890011
                 58001 =
2014-04-18 21:56 METAR KCXY 190156Z AUTO 14003KT 10SM CLR 09/01 A3028 RMK AO2 SLP258 T00940011 =
2014-04-18 20:56 METAR KCXY 190056Z AUTO 00000KT 10SM CLR 09/02 A3029 RMK AO2 SLP259 T00940017 =
2014-04-18 19:56 METAR KCXY 182356Z 12004KT 10SM CLR 11/02 A3028 RMK AO2 SLP256 T01060017 10122
                 20094 56013 =
2014-04-18 18:56 METAR KCXY 182256Z 11005KT 10SM CLR 11/02 A3028 RMK AO2 SLP257 T01110017 =

Support USWX by starting your Amazon purchase here.